createdAt,value
2019-03-30T00:02:17.408Z,106.00
2019-03-30T00:04:47.277Z,106.47
2019-03-30T00:07:17.074Z,109.10
2019-03-30T00:09:47.218Z,113.43
2019-03-30T00:12:17.050Z,113.47
2019-03-30T00:14:46.863Z,117.27
2019-03-30T00:17:16.777Z,114.77
2019-03-30T00:19:46.587Z,116.57
2019-03-30T00:22:16.378Z,118.00
2019-03-30T00:24:46.294Z,123.80
2019-03-30T00:27:16.249Z,121.13
2019-03-30T00:29:46.086Z,119.70
2019-03-30T00:32:15.878Z,113.93
2019-03-30T00:34:45.696Z,114.90
2019-03-30T00:37:15.474Z,110.50
2019-03-30T00:39:45.272Z,119.60
2019-03-30T00:42:15.093Z,124.17
2019-03-30T00:44:45.006Z,117.57
2019-03-30T00:47:14.809Z,121.43
2019-03-30T00:49:49.703Z,122.03
2019-03-30T00:52:16.200Z,122.13
2019-03-30T00:54:45.996Z,115.50
2019-03-30T00:57:15.905Z,115.67
2019-03-30T00:59:45.809Z,115.37
2019-03-30T01:02:15.633Z,113.97
2019-03-30T01:04:45.532Z,110.50
2019-03-30T01:07:15.398Z,112.57
2019-03-30T01:09:45.193Z,110.80
2019-03-30T01:12:14.981Z,107.60
2019-03-30T01:14:44.837Z,107.83
2019-03-30T01:17:14.697Z,103.93
2019-03-30T01:19:44.533Z,93.67
2019-03-30T01:22:14.330Z,96.80
2019-03-30T01:24:44.206Z,88.33
2019-03-30T01:27:14.010Z,91.30
2019-03-30T01:29:43.808Z,106.00
2019-03-30T01:32:13.693Z,104.43
2019-03-30T01:34:43.509Z,105.10
2019-03-30T01:37:13.325Z,104.27
2019-03-30T01:39:43.153Z,105.03
2019-03-30T01:42:12.942Z,103.57
2019-03-30T01:44:42.837Z,102.17
2019-03-30T01:47:12.638Z,100.03
2019-03-30T01:49:42.499Z,102.07
2019-03-30T01:52:12.470Z,100.27
2019-03-30T01:54:42.305Z,100.23
2019-03-30T01:57:12.117Z,103.37
2019-03-30T01:59:41.922Z,98.63
2019-03-30T02:02:11.704Z,93.37
2019-03-30T02:04:41.533Z,95.20
2019-03-30T02:07:11.417Z,94.87
2019-03-30T02:09:41.282Z,95.47
2019-03-30T02:12:11.189Z,95.03
2019-03-30T02:14:40.977Z,92.97
2019-03-30T02:17:10.861Z,94.70
2019-03-30T02:19:40.777Z,94.20
2019-03-30T02:22:10.569Z,97.50
2019-03-30T02:24:40.367Z,92.23
2019-03-30T02:27:10.191Z,101.70
2019-03-30T02:29:39.973Z,91.43
2019-03-30T02:32:09.854Z,93.83
2019-03-30T02:34:39.721Z,101.67
2019-03-30T02:37:09.596Z,95.67
2019-03-30T02:39:39.472Z,110.43
2019-03-30T02:42:09.343Z,108.53
2019-03-30T02:44:39.136Z,112.33
2019-03-30T02:47:09.002Z,113.90
2019-03-30T02:49:38.796Z,110.20
2019-03-30T02:52:08.678Z,106.90
2019-03-30T02:54:38.515Z,101.57
2019-03-30T02:57:08.385Z,111.07
2019-03-30T02:59:38.200Z,111.87
2019-03-30T03:02:08.008Z,105.30
2019-03-30T03:04:37.930Z,113.43
2019-03-30T03:07:07.736Z,109.80
2019-03-30T03:09:37.527Z,108.53
2019-03-30T03:12:07.435Z,108.60
2019-03-30T03:14:37.218Z,105.60
2019-03-30T03:17:07.044Z,105.57
2019-03-30T03:19:36.951Z,103.97
2019-03-30T03:22:06.746Z,103.50
2019-03-30T03:24:36.490Z,98.93
2019-03-30T03:27:06.291Z,101.80
2019-03-30T03:29:36.217Z,95.70
2019-03-30T03:32:06.067Z,95.63
2019-03-30T03:34:35.914Z,91.87
2019-03-30T03:37:05.809Z,92.93
2019-03-30T03:39:35.631Z,91.47
2019-03-30T03:42:05.450Z,88.70
2019-03-30T03:44:35.297Z,87.87
2019-03-30T03:47:05.164Z,91.77
2019-03-30T03:49:35.081Z,90.27
2019-03-30T03:52:06.188Z,89.07
2019-03-30T03:54:36.127Z,85.23
2019-03-30T03:57:06.523Z,81.37
2019-03-30T03:59:37.506Z,77.40
2019-03-30T04:02:10.643Z,81.40
2019-03-30T04:04:40.913Z,80.53
2019-03-30T04:07:11.418Z,80.90
2019-03-30T04:09:44.840Z,77.67
2019-03-30T04:12:16.592Z,75.30
2019-03-30T04:14:52.124Z,76.03
2019-03-30T04:17:21.945Z,75.37
2019-03-30T04:19:51.755Z,69.13
2019-03-30T04:22:21.603Z,72.67
2019-03-30T04:24:51.418Z,71.83
2019-03-30T04:27:21.198Z,69.50
2019-03-30T04:29:50.991Z,71.27
2019-03-30T04:32:20.795Z,69.83
2019-03-30T04:34:50.590Z,67.97
2019-03-30T04:37:20.423Z,61.10
2019-03-30T04:39:50.227Z,65.63
2019-03-30T04:42:20.102Z,68.83
2019-03-30T04:44:49.910Z,73.53
2019-03-30T04:47:19.768Z,73.20
2019-03-30T04:49:49.648Z,76.07
2019-03-30T04:52:19.509Z,74.23
2019-03-30T04:54:49.441Z,73.73
2019-03-30T04:57:19.322Z,76.43
2019-03-30T04:59:49.157Z,82.37
2019-03-30T05:02:19.001Z,83.43
2019-03-30T05:04:48.785Z,85.23
2019-03-30T05:07:18.623Z,89.00
2019-03-30T05:09:48.430Z,86.47
2019-03-30T05:12:18.221Z,93.17
2019-03-30T05:14:48.036Z,89.50
2019-03-30T05:17:17.946Z,92.57
2019-03-30T05:19:47.780Z,100.53
2019-03-30T05:22:17.586Z,107.97
2019-03-30T05:24:47.393Z,114.37
2019-03-30T05:27:17.213Z,116.27
2019-03-30T05:29:47.040Z,112.57
2019-03-30T05:32:16.841Z,111.17
2019-03-30T05:34:46.749Z,111.13
2019-03-30T05:37:16.555Z,105.03
2019-03-30T05:39:46.453Z,110.10
2019-03-30T05:42:16.337Z,108.03
2019-03-30T05:44:46.163Z,104.97
2019-03-30T05:47:16.042Z,101.43
2019-03-30T05:49:46.810Z,100.40
2019-03-30T05:52:26.525Z,99.53
2019-03-30T05:54:48.222Z,96.37
2019-03-30T05:57:18.121Z,102.23
2019-03-30T05:59:47.941Z,103.77
2019-03-30T06:02:17.754Z,96.43
2019-03-30T06:04:47.587Z,94.37
2019-03-30T06:07:17.449Z,97.77
2019-03-30T06:09:47.274Z,101.53
2019-03-30T06:12:17.078Z,104.23
2019-03-30T06:14:46.878Z,107.93
2019-03-30T06:17:16.722Z,107.47
2019-03-30T06:19:46.515Z,111.67
2019-03-30T06:22:16.309Z,114.80
2019-03-30T06:24:46.206Z,108.27
2019-03-30T06:27:16.007Z,109.77
2019-03-30T06:30:06.154Z,111.07
2019-03-30T06:32:36.018Z,104.27
2019-03-30T06:35:05.905Z,103.40
2019-03-30T06:37:35.707Z,102.97
2019-03-30T06:40:05.905Z,111.10
2019-03-30T06:42:35.739Z,108.33
2019-03-30T06:45:05.730Z,111.30
2019-03-30T06:47:35.563Z,112.13
2019-03-30T06:50:05.838Z,109.83
2019-03-30T06:52:35.699Z,103.50
2019-03-30T06:55:06.361Z,104.80
2019-03-30T06:57:36.190Z,104.47
2019-03-30T07:00:06.811Z,98.97
2019-03-30T07:02:37.465Z,99.73
2019-03-30T07:05:09.273Z,97.57
2019-03-30T07:07:40.030Z,95.57
2019-03-30T07:10:10.797Z,97.03
2019-03-30T07:12:42.348Z,91.63
2019-03-30T07:15:12.412Z,92.97
2019-03-30T07:17:47.366Z,94.10
2019-03-30T07:20:36.013Z,85.97
2019-03-30T07:23:12.345Z,86.70
2019-03-30T07:25:37.350Z,90.97
2019-03-30T07:28:07.183Z,88.53
2019-03-30T07:30:36.982Z,84.03
2019-03-30T07:33:06.821Z,90.40
2019-03-30T07:35:37.039Z,86.93
2019-03-30T07:38:06.825Z,86.73
2019-03-30T07:40:36.674Z,87.80
2019-03-30T07:43:06.564Z,83.63
2019-03-30T07:45:36.369Z,85.30
2019-03-30T07:48:06.274Z,82.30
2019-03-30T07:50:36.172Z,83.67
2019-03-30T07:53:06.056Z,79.90
2019-03-30T07:55:36.112Z,74.53
2019-03-30T07:58:06.048Z,78.30
2019-03-30T08:00:35.969Z,77.37
2019-03-30T08:03:06.013Z,77.30
2019-03-30T08:05:35.823Z,76.73
2019-03-30T08:08:05.743Z,75.47
2019-03-30T08:10:35.563Z,76.30
2019-03-30T08:13:05.382Z,71.97
2019-03-30T08:15:35.255Z,73.87
2019-03-30T08:18:05.436Z,71.40
2019-03-30T08:20:35.258Z,74.17
2019-03-30T08:23:05.142Z,70.27
2019-03-30T08:25:35.220Z,67.63
2019-03-30T08:28:05.027Z,53.43
2019-03-30T08:30:34.838Z,57.23
2019-03-30T08:33:04.654Z,57.20
2019-03-30T08:35:34.475Z,57.60
2019-03-30T08:38:04.341Z,56.20
2019-03-30T08:40:34.153Z,56.33
2019-03-30T08:43:04.004Z,51.43
2019-03-30T08:45:33.799Z,43.90
2019-03-30T08:48:03.594Z,40.67
2019-03-30T08:50:33.393Z,37.13
2019-03-30T08:53:03.313Z,38.20
2019-03-30T08:55:33.126Z,39.30
2019-03-30T08:58:02.926Z,40.90
2019-03-30T09:00:38.913Z,37.93
2019-03-30T09:03:09.085Z,38.57
2019-03-30T09:05:38.986Z,38.77
2019-03-30T09:08:08.919Z,38.73
2019-03-30T09:10:38.719Z,36.93
2019-03-30T09:13:08.542Z,38.37
2019-03-30T09:15:38.397Z,37.00
2019-03-30T09:18:08.403Z,40.87
2019-03-30T09:20:38.308Z,37.87
2019-03-30T09:23:08.093Z,37.70
2019-03-30T09:25:38.038Z,34.97
2019-03-30T09:28:07.842Z,36.03
2019-03-30T09:30:37.697Z,35.23
2019-03-30T09:33:07.517Z,33.67
2019-03-30T09:35:37.330Z,31.70
2019-03-30T09:38:07.207Z,31.37
2019-03-30T09:40:37.089Z,30.30
2019-03-30T09:43:06.902Z,29.85
2019-03-30T09:45:36.774Z,28.83
2019-03-30T09:48:06.585Z,28.77
2019-03-30T09:50:36.408Z,28.17
2019-03-30T09:53:06.306Z,27.85
2019-03-30T09:55:36.102Z,27.40
2019-03-30T09:58:05.903Z,27.67
2019-03-30T10:00:35.754Z,27.13
2019-03-30T10:03:06.172Z,25.55
2019-03-30T10:05:36.162Z,23.52
2019-03-30T10:08:05.979Z,23.25
2019-03-30T10:10:35.798Z,22.48
2019-03-30T10:13:05.614Z,20.68
2019-03-30T10:15:35.442Z,22.00
2019-03-30T10:18:05.256Z,21.55
2019-03-30T10:20:35.130Z,22.55
2019-03-30T10:23:04.957Z,21.27
2019-03-30T10:25:34.794Z,21.15
2019-03-30T10:28:04.672Z,21.05
2019-03-30T10:30:34.478Z,22.70
2019-03-30T10:33:04.292Z,22.55
2019-03-30T10:35:34.113Z,23.22
2019-03-30T10:38:03.989Z,21.52
2019-03-30T10:40:33.810Z,21.45
2019-03-30T10:43:03.654Z,23.05
2019-03-30T10:45:33.529Z,23.20
2019-03-30T10:48:03.356Z,23.62
2019-03-30T10:50:33.169Z,21.77
2019-03-30T10:53:02.985Z,20.17
2019-03-30T10:55:32.794Z,20.12
2019-03-30T10:58:02.612Z,20.23
2019-03-30T11:00:40.786Z,19.90
2019-03-30T11:03:10.663Z,19.20
2019-03-30T11:05:40.537Z,19.42
2019-03-30T11:08:10.453Z,18.67
2019-03-30T11:10:40.274Z,19.45
2019-03-30T11:13:10.181Z,19.67
2019-03-30T11:15:39.982Z,17.73
2019-03-30T11:18:09.834Z,17.23
2019-03-30T11:20:39.719Z,17.30
2019-03-30T11:23:09.550Z,16.63
2019-03-30T11:25:39.375Z,17.37
2019-03-30T11:28:09.230Z,16.23
2019-03-30T11:30:39.037Z,17.10
2019-03-30T11:33:08.831Z,17.40
2019-03-30T11:35:38.694Z,16.67
2019-03-30T11:38:08.532Z,16.47
2019-03-30T11:40:38.375Z,14.93
2019-03-30T11:43:08.173Z,14.90
2019-03-30T11:45:38.017Z,14.57
2019-03-30T11:48:07.854Z,13.37
2019-03-30T11:50:37.678Z,14.37
2019-03-30T11:53:07.471Z,14.50
2019-03-30T11:55:37.293Z,12.87
2019-03-30T11:58:07.121Z,12.23
2019-03-30T12:00:37.158Z,11.83
2019-03-30T12:03:06.959Z,10.60
2019-03-30T12:05:36.785Z,10.73
2019-03-30T12:08:06.595Z,10.30
2019-03-30T12:10:36.611Z,10.97
2019-03-30T12:13:06.463Z,10.03
2019-03-30T12:15:36.274Z,8.80
2019-03-30T12:18:06.073Z,8.73
2019-03-30T12:20:35.907Z,10.00
2019-03-30T12:23:05.717Z,10.53
2019-03-30T12:25:36.273Z,11.03
2019-03-30T12:28:06.238Z,11.87
2019-03-30T12:30:36.087Z,11.40
2019-03-30T12:33:05.898Z,12.37
2019-03-30T12:35:35.702Z,12.30
2019-03-30T12:38:05.571Z,12.57
2019-03-30T12:40:35.441Z,13.83
2019-03-30T12:43:05.254Z,12.60
2019-03-30T12:45:35.056Z,13.23
2019-03-30T12:48:04.882Z,11.50
2019-03-30T12:50:34.698Z,12.73
2019-03-30T12:53:04.489Z,11.67
2019-03-30T12:55:48.384Z,12.93
2019-03-30T12:58:06.177Z,14.43
2019-03-30T13:00:35.990Z,13.70
2019-03-30T13:03:05.825Z,13.10
2019-03-30T13:05:35.653Z,14.20
2019-03-30T13:08:05.525Z,13.33
2019-03-30T13:10:35.644Z,12.93
2019-03-30T13:13:05.525Z,13.40
2019-03-30T13:15:35.401Z,12.53
2019-03-30T13:18:05.269Z,13.70
2019-03-30T13:20:35.190Z,13.40
2019-03-30T13:23:05.038Z,14.30
2019-03-30T13:25:34.949Z,12.90
2019-03-30T13:28:04.869Z,13.37
2019-03-30T13:30:34.724Z,13.30
2019-03-30T13:33:04.528Z,12.87
2019-03-30T13:35:34.339Z,12.87
2019-03-30T13:38:04.207Z,13.37
2019-03-30T13:40:34.037Z,13.07
2019-03-30T13:43:03.843Z,12.30
2019-03-30T13:45:33.651Z,11.50
2019-03-30T13:48:03.524Z,12.77
2019-03-30T13:50:33.353Z,11.63
2019-03-30T13:53:03.206Z,12.37
2019-03-30T13:55:32.997Z,11.73
2019-03-30T13:58:02.860Z,12.37
2019-03-30T14:00:32.715Z,12.43
2019-03-30T14:03:02.530Z,10.70
2019-03-30T14:05:32.373Z,10.40
2019-03-30T14:08:02.237Z,8.97
2019-03-30T14:10:32.057Z,8.97
2019-03-30T14:13:01.929Z,6.73
2019-03-30T14:15:31.756Z,7.80
2019-03-30T14:18:01.685Z,7.90
2019-03-30T14:20:31.593Z,8.00
2019-03-30T14:23:01.484Z,8.63
2019-03-30T14:25:31.336Z,10.43
2019-03-30T14:28:01.140Z,10.37
2019-03-30T14:30:30.985Z,10.37
2019-03-30T14:33:00.917Z,9.93
2019-03-30T14:35:30.761Z,9.30
2019-03-30T14:38:00.582Z,8.47
2019-03-30T14:40:30.390Z,7.97
2019-03-30T14:43:00.624Z,9.33
2019-03-30T14:45:30.434Z,9.77
2019-03-30T14:48:00.242Z,8.60
2019-03-30T14:50:30.122Z,9.53
2019-03-30T14:52:59.973Z,10.50
2019-03-30T14:55:29.821Z,11.53
2019-03-30T14:57:59.618Z,12.10
2019-03-30T15:00:29.536Z,11.97
2019-03-30T15:02:59.562Z,12.17
2019-03-30T15:05:29.494Z,10.67
2019-03-30T15:07:59.325Z,11.93
2019-03-30T15:10:29.190Z,12.07
2019-03-30T15:12:59.034Z,11.47
2019-03-30T15:15:28.827Z,10.70
2019-03-30T15:17:58.633Z,11.00
2019-03-30T15:20:28.468Z,10.97
2019-03-30T15:22:58.275Z,10.93
2019-03-30T15:25:28.133Z,11.80
2019-03-30T15:27:57.950Z,10.60
2019-03-30T15:30:27.761Z,12.23
2019-03-30T15:32:57.770Z,11.40
2019-03-30T15:35:27.579Z,11.80
2019-03-30T15:37:57.471Z,11.50
2019-03-30T15:40:27.294Z,11.10
2019-03-30T15:42:57.191Z,10.80
2019-03-30T15:45:27.097Z,11.77
2019-03-30T15:47:57.019Z,12.47
2019-03-30T15:50:26.857Z,12.03
2019-03-30T15:52:57.090Z,12.73
2019-03-30T15:55:26.887Z,12.20
2019-03-30T15:57:56.689Z,11.57
2019-03-30T16:00:26.670Z,11.23
2019-03-30T16:02:56.479Z,11.00
2019-03-30T16:05:26.277Z,11.23
2019-03-30T16:07:56.124Z,10.70
2019-03-30T16:10:25.936Z,10.73
2019-03-30T16:12:55.847Z,11.77
2019-03-30T16:15:25.674Z,10.33
2019-03-30T16:17:55.501Z,11.20
2019-03-30T16:20:25.368Z,10.47
2019-03-30T16:22:55.214Z,10.63
2019-03-30T16:25:25.030Z,10.00
2019-03-30T16:27:54.865Z,10.30
2019-03-30T16:30:24.690Z,10.57
2019-03-30T16:32:54.582Z,10.13
2019-03-30T16:35:24.405Z,10.33
2019-03-30T16:37:54.218Z,10.57
2019-03-30T16:40:24.034Z,9.83
2019-03-30T16:42:53.833Z,9.90
2019-03-30T16:45:23.665Z,10.17
2019-03-30T16:47:53.516Z,9.37
2019-03-30T16:50:23.327Z,9.93
2019-03-30T16:52:53.113Z,10.93
2019-03-30T16:55:22.949Z,9.83
2019-03-30T16:57:52.798Z,11.83
2019-03-30T17:00:22.618Z,11.50
2019-03-30T17:02:52.465Z,13.00
2019-03-30T17:05:22.278Z,14.17
2019-03-30T17:07:52.118Z,13.80
2019-03-30T17:10:22.021Z,16.33
2019-03-30T17:12:51.844Z,14.70
2019-03-30T17:15:21.731Z,11.77
2019-03-30T17:17:51.530Z,9.60
2019-03-30T17:20:21.330Z,9.10
2019-03-30T17:22:51.214Z,9.47
2019-03-30T17:25:21.009Z,10.50
2019-03-30T17:27:58.167Z,9.67
2019-03-30T17:30:22.398Z,10.10
2019-03-30T17:32:52.259Z,12.03
2019-03-30T17:35:22.191Z,12.60
2019-03-30T17:37:52.042Z,12.93
2019-03-30T17:40:21.871Z,11.63
2019-03-30T17:42:51.766Z,11.63
2019-03-30T17:45:21.607Z,12.43
2019-03-30T17:47:51.445Z,13.90
2019-03-30T17:50:21.250Z,14.97
2019-03-30T17:52:51.134Z,13.87
2019-03-30T17:55:32.999Z,15.47
2019-03-30T17:57:52.498Z,15.17
2019-03-30T18:00:22.523Z,16.20
2019-03-30T18:02:52.331Z,17.80
2019-03-30T18:05:22.182Z,17.97
2019-03-30T18:07:51.986Z,20.57
2019-03-30T18:10:21.801Z,19.37
2019-03-30T18:12:51.610Z,19.70
2019-03-30T18:15:21.430Z,21.50
2019-03-30T18:17:51.298Z,21.00
2019-03-30T18:20:21.090Z,21.00
2019-03-30T18:22:50.890Z,20.87
2019-03-30T18:25:20.765Z,21.17
2019-03-30T18:27:50.660Z,19.40
2019-03-30T18:30:34.590Z,21.20
2019-03-30T18:33:04.506Z,21.20
2019-03-30T18:35:34.834Z,20.93
2019-03-30T18:38:05.050Z,20.77
2019-03-30T18:40:35.281Z,21.00
2019-03-30T18:43:05.218Z,22.73
2019-03-30T18:45:35.966Z,20.33
2019-03-30T18:48:13.314Z,20.70
2019-03-30T18:50:43.466Z,18.57
2019-03-30T18:53:13.346Z,19.87
2019-03-30T18:55:43.193Z,20.43
2019-03-30T18:58:13.007Z,23.03
2019-03-30T19:00:42.817Z,24.27
2019-03-30T19:03:12.659Z,22.20
2019-03-30T19:05:42.544Z,23.33
2019-03-30T19:08:12.440Z,24.67
2019-03-30T19:10:42.294Z,25.73
2019-03-30T19:13:12.141Z,21.80
2019-03-30T19:15:41.965Z,24.00
2019-03-30T19:18:11.896Z,24.37
2019-03-30T19:20:41.770Z,22.80
2019-03-30T19:23:11.594Z,23.03
2019-03-30T19:25:41.573Z,23.87
2019-03-30T19:28:11.378Z,23.13
2019-03-30T19:30:42.321Z,24.20
2019-03-30T19:33:12.695Z,23.77
2019-03-30T19:35:42.498Z,23.87
2019-03-30T19:38:12.320Z,26.47
2019-03-30T19:40:42.314Z,28.53
2019-03-30T19:43:12.118Z,25.97
2019-03-30T19:45:42.184Z,27.40
2019-03-30T19:48:12.073Z,26.97
2019-03-30T19:50:41.962Z,26.20
2019-03-30T19:53:11.833Z,27.73
2019-03-30T19:55:41.642Z,27.10
2019-03-30T19:58:11.465Z,28.03
2019-03-30T20:00:41.271Z,29.17
2019-03-30T20:03:11.075Z,29.47
2019-03-30T20:05:44.420Z,30.60
2019-03-30T20:08:12.842Z,32.43
2019-03-30T20:10:42.850Z,31.00
2019-03-30T20:13:12.710Z,30.43
2019-03-30T20:15:42.522Z,31.70
2019-03-30T20:18:12.401Z,32.57
2019-03-30T20:20:42.244Z,31.17
2019-03-30T20:23:12.040Z,32.77
2019-03-30T20:25:41.876Z,33.60
2019-03-30T20:28:11.729Z,33.53
2019-03-30T20:30:41.618Z,32.63
2019-03-30T20:33:11.438Z,30.20
2019-03-30T20:35:41.246Z,33.03
2019-03-30T20:38:11.060Z,30.53
2019-03-30T20:40:41.024Z,29.70
2019-03-30T20:43:10.907Z,30.10
2019-03-30T20:45:40.856Z,27.90
2019-03-30T20:48:10.695Z,30.30
2019-03-30T20:50:40.501Z,27.23
2019-03-30T20:53:10.357Z,28.23
2019-03-30T20:55:40.157Z,28.50
2019-03-30T20:58:09.962Z,26.87
2019-03-30T21:00:39.811Z,27.87
2019-03-30T21:03:09.707Z,24.80
2019-03-30T21:05:39.582Z,24.67
2019-03-30T21:08:09.394Z,25.97
2019-03-30T21:10:39.300Z,26.50
2019-03-30T21:13:09.238Z,25.93
2019-03-30T21:15:39.134Z,25.70
2019-03-30T21:18:09.021Z,25.00
2019-03-30T21:20:38.896Z,25.07
2019-03-30T21:23:08.691Z,21.53
2019-03-30T21:25:38.501Z,21.63
2019-03-30T21:28:08.313Z,21.07
2019-03-30T21:30:38.150Z,19.33
2019-03-30T21:33:07.997Z,21.70
2019-03-30T21:35:37.995Z,21.03
2019-03-30T21:38:07.843Z,19.43
2019-03-30T21:40:37.640Z,20.40
2019-03-30T21:43:07.492Z,23.17
2019-03-30T21:45:37.485Z,25.43
2019-03-30T21:48:07.442Z,27.30
2019-03-30T21:50:37.273Z,27.97
2019-03-30T21:53:07.109Z,27.00
2019-03-30T21:55:36.951Z,28.43
2019-03-30T21:58:06.745Z,29.97
2019-03-30T22:00:38.231Z,28.27
2019-03-30T22:03:08.345Z,28.90
2019-03-30T22:05:38.185Z,29.97
2019-03-30T22:08:07.998Z,25.70
2019-03-30T22:10:37.830Z,25.17
2019-03-30T22:13:07.655Z,26.30
2019-03-30T22:15:37.490Z,24.33
2019-03-30T22:18:07.351Z,24.43
2019-03-30T22:20:37.233Z,24.43
2019-03-30T22:23:07.038Z,25.33
2019-03-30T22:25:36.986Z,23.37
2019-03-30T22:28:06.858Z,21.83
2019-03-30T22:30:36.762Z,23.20
2019-03-30T22:33:06.586Z,23.80
2019-03-30T22:35:36.394Z,23.47
2019-03-30T22:38:06.202Z,23.70
2019-03-30T22:40:36.050Z,23.43
2019-03-30T22:43:05.957Z,23.83
2019-03-30T22:45:35.753Z,24.47
2019-03-30T22:48:05.605Z,23.87
2019-03-30T22:50:35.549Z,27.43
2019-03-30T22:53:05.364Z,26.90
2019-03-30T22:55:35.294Z,27.67
2019-03-30T22:58:05.105Z,27.30
2019-03-30T23:00:47.149Z,26.73
2019-03-30T23:03:16.957Z,27.70
2019-03-30T23:05:46.761Z,27.93
2019-03-30T23:08:16.658Z,37.30
2019-03-30T23:10:46.474Z,38.10
2019-03-30T23:13:16.338Z,39.17
2019-03-30T23:15:46.154Z,37.70
2019-03-30T23:18:16.055Z,37.90
2019-03-30T23:20:45.790Z,39.10
2019-03-30T23:23:15.660Z,38.30
2019-03-30T23:25:45.474Z,39.57
2019-03-30T23:28:15.265Z,40.53
2019-03-30T23:30:54.198Z,40.23
2019-03-30T23:33:16.607Z,40.40
2019-03-30T23:35:46.406Z,42.23
2019-03-30T23:38:16.199Z,40.37
2019-03-30T23:40:46.045Z,43.30
2019-03-30T23:43:15.839Z,42.73
2019-03-30T23:45:45.639Z,40.93
2019-03-30T23:48:15.437Z,41.73
2019-03-30T23:50:45.634Z,40.40
2019-03-30T23:53:15.446Z,40.37
2019-03-30T23:55:45.286Z,41.80
2019-03-30T23:58:15.082Z,39.77
